sensor_id;sensor_type;location;lat;lon;timestamp;P1;durP1;ratioP1;P2;durP2;ratioP2
70667;SDS011;58242;51.250;-1.118;2022-12-07T00:01:09;6.68;;;5.53;;
70667;SDS011;58242;51.250;-1.118;2022-12-07T00:03:37;6.38;;;5.68;;
70667;SDS011;58242;51.250;-1.118;2022-12-07T00:06:04;7.45;;;4.95;;
70667;SDS011;58242;51.250;-1.118;2022-12-07T00:08:32;5.20;;;4.65;;
70667;SDS011;58242;51.250;-1.118;2022-12-07T00:11:04;4.85;;;4.22;;
70667;SDS011;58242;51.250;-1.118;2022-12-07T00:13:35;6.82;;;4.85;;
70667;SDS011;58242;51.250;-1.118;2022-12-07T00:16:03;8.35;;;5.25;;
70667;SDS011;58242;51.250;-1.118;2022-12-07T00:18:31;8.63;;;6.75;;
70667;SDS011;58242;51.250;-1.118;2022-12-07T00:21:03;8.45;;;6.57;;
70667;SDS011;58242;51.250;-1.118;2022-12-07T00:23:33;9.10;;;6.10;;
70667;SDS011;58242;51.250;-1.118;2022-12-07T00:26:06;6.72;;;5.03;;
70667;SDS011;58242;51.250;-1.118;2022-12-07T00:28:36;7.68;;;5.18;;
70667;SDS011;58242;51.250;-1.118;2022-12-07T00:31:09;5.43;;;4.90;;
70667;SDS011;58242;51.250;-1.118;2022-12-07T00:33:36;6.60;;;4.45;;
70667;SDS011;58242;51.250;-1.118;2022-12-07T00:36:03;6.65;;;5.20;;
70667;SDS011;58242;51.250;-1.118;2022-12-07T00:38:32;6.88;;;4.75;;
70667;SDS011;58242;51.250;-1.118;2022-12-07T00:41:00;5.45;;;4.93;;
70667;SDS011;58242;51.250;-1.118;2022-12-07T00:43:27;4.75;;;4.30;;
70667;SDS011;58242;51.250;-1.118;2022-12-07T00:45:53;4.95;;;4.47;;
70667;SDS011;58242;51.250;-1.118;2022-12-07T00:48:20;4.13;;;3.78;;
70667;SDS011;58242;51.250;-1.118;2022-12-07T00:50:45;5.25;;;3.92;;
70667;SDS011;58242;51.250;-1.118;2022-12-07T00:53:10;4.40;;;4.00;;
70667;SDS011;58242;51.250;-1.118;2022-12-07T00:55:36;5.75;;;4.43;;
70667;SDS011;58242;51.250;-1.118;2022-12-07T00:58:01;6.70;;;4.90;;
70667;SDS011;58242;51.250;-1.118;2022-12-07T01:00:27;8.27;;;4.95;;
70667;SDS011;58242;51.250;-1.118;2022-12-07T01:02:53;7.47;;;4.97;;
70667;SDS011;58242;51.250;-1.118;2022-12-07T01:05:18;4.25;;;3.83;;
70667;SDS011;58242;51.250;-1.118;2022-12-07T01:07:44;5.13;;;4.45;;
70667;SDS011;58242;51.250;-1.118;2022-12-07T01:10:09;4.32;;;3.95;;
70667;SDS011;58242;51.250;-1.118;2022-12-07T01:12:35;3.95;;;3.65;;
70667;SDS011;58242;51.250;-1.118;2022-12-07T01:15:00;5.35;;;4.47;;
70667;SDS011;58242;51.250;-1.118;2022-12-07T01:17:25;5.28;;;4.78;;
70667;SDS011;58242;51.250;-1.118;2022-12-07T01:19:51;6.82;;;5.03;;
70667;SDS011;58242;51.250;-1.118;2022-12-07T01:22:16;7.47;;;5.38;;
70667;SDS011;58242;51.250;-1.118;2022-12-07T01:24:41;6.07;;;5.13;;
70667;SDS011;58242;51.250;-1.118;2022-12-07T01:27:07;6.00;;;4.40;;
70667;SDS011;58242;51.250;-1.118;2022-12-07T01:29:32;7.45;;;4.95;;
70667;SDS011;58242;51.250;-1.118;2022-12-07T01:31:57;4.80;;;4.30;;
70667;SDS011;58242;51.250;-1.118;2022-12-07T01:34:23;5.30;;;4.80;;
70667;SDS011;58242;51.250;-1.118;2022-12-07T01:36:48;7.55;;;5.53;;
70667;SDS011;58242;51.250;-1.118;2022-12-07T01:39:13;5.28;;;4.78;;
70667;SDS011;58242;51.250;-1.118;2022-12-07T01:41:39;6.70;;;4.57;;
70667;SDS011;58242;51.250;-1.118;2022-12-07T01:46:36;5.60;;;4.50;;
70667;SDS011;58242;51.250;-1.118;2022-12-07T01:49:01;4.93;;;4.47;;
70667;SDS011;58242;51.250;-1.118;2022-12-07T01:51:31;7.82;;;6.07;;
70667;SDS011;58242;51.250;-1.118;2022-12-07T01:53:56;7.95;;;6.03;;
70667;SDS011;58242;51.250;-1.118;2022-12-07T01:56:24;9.02;;;5.78;;
70667;SDS011;58242;51.250;-1.118;2022-12-07T01:58:52;5.90;;;4.97;;
70667;SDS011;58242;51.250;-1.118;2022-12-07T02:01:19;9.80;;;7.10;;
70667;SDS011;58242;51.250;-1.118;2022-12-07T02:03:44;7.88;;;5.60;;
70667;SDS011;58242;51.250;-1.118;2022-12-07T02:06:11;7.93;;;5.03;;
70667;SDS011;58242;51.250;-1.118;2022-12-07T02:08:41;7.25;;;5.38;;
70667;SDS011;58242;51.250;-1.118;2022-12-07T02:11:07;8.82;;;6.03;;
70667;SDS011;58242;51.250;-1.118;2022-12-07T02:13:34;5.95;;;4.90;;
70667;SDS011;58242;51.250;-1.118;2022-12-07T02:21:51;5.07;;;4.40;;
70667;SDS011;58242;51.250;-1.118;2022-12-07T02:32:24;5.40;;;4.32;;
70667;SDS011;58242;51.250;-1.118;2022-12-07T02:35:05;5.63;;;4.63;;
70667;SDS011;58242;51.250;-1.118;2022-12-07T02:40:34;4.15;;;3.85;;
70667;SDS011;58242;51.250;-1.118;2022-12-07T02:43:08;6.65;;;5.03;;
70667;SDS011;58242;51.250;-1.118;2022-12-07T02:45:38;5.00;;;4.50;;
70667;SDS011;58242;51.250;-1.118;2022-12-07T02:48:07;5.43;;;4.40;;
70667;SDS011;58242;51.250;-1.118;2022-12-07T02:50:34;5.30;;;4.70;;
70667;SDS011;58242;51.250;-1.118;2022-12-07T02:53:00;6.18;;;5.10;;
70667;SDS011;58242;51.250;-1.118;2022-12-07T02:55:28;5.88;;;5.35;;
70667;SDS011;58242;51.250;-1.118;2022-12-07T02:58:14;6.00;;;5.28;;
70667;SDS011;58242;51.250;-1.118;2022-12-07T03:00:52;9.25;;;6.43;;
70667;SDS011;58242;51.250;-1.118;2022-12-07T03:03:25;7.75;;;5.32;;
70667;SDS011;58242;51.250;-1.118;2022-12-07T03:08:37;5.25;;;4.75;;
70667;SDS011;58242;51.250;-1.118;2022-12-07T03:11:32;5.45;;;4.97;;
70667;SDS011;58242;51.250;-1.118;2022-12-07T03:14:09;5.35;;;4.72;;
70667;SDS011;58242;51.250;-1.118;2022-12-07T03:16:46;5.22;;;4.40;;
70667;SDS011;58242;51.250;-1.118;2022-12-07T03:19:18;4.82;;;4.30;;
70667;SDS011;58242;51.250;-1.118;2022-12-07T03:22:07;6.32;;;3.80;;
70667;SDS011;58242;51.250;-1.118;2022-12-07T03:24:36;7.78;;;4.53;;
70667;SDS011;58242;51.250;-1.118;2022-12-07T03:27:06;8.07;;;6.00;;
70667;SDS011;58242;51.250;-1.118;2022-12-07T03:29:38;8.68;;;5.90;;
70667;SDS011;58242;51.250;-1.118;2022-12-07T03:35:32;6.20;;;4.28;;
70667;SDS011;58242;51.250;-1.118;2022-12-07T03:40:32;5.03;;;4.05;;
70667;SDS011;58242;51.250;-1.118;2022-12-07T03:43:09;5.57;;;4.50;;
70667;SDS011;58242;51.250;-1.118;2022-12-07T03:45:40;5.00;;;4.50;;
70667;SDS011;58242;51.250;-1.118;2022-12-07T03:50:48;6.57;;;5.32;;
70667;SDS011;58242;51.250;-1.118;2022-12-07T03:53:22;5.63;;;5.13;;
70667;SDS011;58242;51.250;-1.118;2022-12-07T03:55:54;4.80;;;4.28;;
70667;SDS011;58242;51.250;-1.118;2022-12-07T03:58:21;6.25;;;5.00;;
70667;SDS011;58242;51.250;-1.118;2022-12-07T04:00:48;5.32;;;4.45;;
70667;SDS011;58242;51.250;-1.118;2022-12-07T04:03:15;5.43;;;4.45;;
70667;SDS011;58242;51.250;-1.118;2022-12-07T04:05:40;6.68;;;4.43;;
70667;SDS011;58242;51.250;-1.118;2022-12-07T04:08:05;3.75;;;3.42;;
70667;SDS011;58242;51.250;-1.118;2022-12-07T04:10:31;7.78;;;5.07;;
70667;SDS011;58242;51.250;-1.118;2022-12-07T04:12:56;4.50;;;4.10;;
70667;SDS011;58242;51.250;-1.118;2022-12-07T04:15:22;4.85;;;4.40;;
70667;SDS011;58242;51.250;-1.118;2022-12-07T04:17:47;4.28;;;3.88;;
70667;SDS011;58242;51.250;-1.118;2022-12-07T04:20:13;5.43;;;4.78;;
70667;SDS011;58242;51.250;-1.118;2022-12-07T04:22:38;4.50;;;4.10;;
70667;SDS011;58242;51.250;-1.118;2022-12-07T04:25:04;4.90;;;4.00;;
70667;SDS011;58242;51.250;-1.118;2022-12-07T04:27:30;5.78;;;4.60;;
70667;SDS011;58242;51.250;-1.118;2022-12-07T04:29:55;6.00;;;4.40;;
70667;SDS011;58242;51.250;-1.118;2022-12-07T04:32:21;4.90;;;4.35;;
70667;SDS011;58242;51.250;-1.118;2022-12-07T04:34:47;4.15;;;3.85;;
70667;SDS011;58242;51.250;-1.118;2022-12-07T04:37:13;5.47;;;4.85;;
70667;SDS011;58242;51.250;-1.118;2022-12-07T04:39:38;5.50;;;4.97;;
70667;SDS011;58242;51.250;-1.118;2022-12-07T04:42:04;4.95;;;4.13;;
70667;SDS011;58242;51.250;-1.118;2022-12-07T04:44:29;5.75;;;4.60;;
70667;SDS011;58242;51.250;-1.118;2022-12-07T04:46:54;5.90;;;5.30;;
70667;SDS011;58242;51.250;-1.118;2022-12-07T04:49:20;5.00;;;4.40;;
70667;SDS011;58242;51.250;-1.118;2022-12-07T04:51:46;5.47;;;4.80;;
70667;SDS011;58242;51.250;-1.118;2022-12-07T04:54:12;6.65;;;5.20;;
70667;SDS011;58242;51.250;-1.118;2022-12-07T04:56:38;6.75;;;5.25;;
70667;SDS011;58242;51.250;-1.118;2022-12-07T04:59:03;5.30;;;4.80;;
70667;SDS011;58242;51.250;-1.118;2022-12-07T05:01:30;7.80;;;5.05;;
70667;SDS011;58242;51.250;-1.118;2022-12-07T05:03:55;4.38;;;3.97;;
70667;SDS011;58242;51.250;-1.118;2022-12-07T05:06:21;4.78;;;4.38;;
70667;SDS011;58242;51.250;-1.118;2022-12-07T05:08:46;5.18;;;4.22;;
70667;SDS011;58242;51.250;-1.118;2022-12-07T05:11:12;4.55;;;4.18;;
70667;SDS011;58242;51.250;-1.118;2022-12-07T05:13:58;6.50;;;4.78;;
70667;SDS011;58242;51.250;-1.118;2022-12-07T05:16:23;5.60;;;4.53;;
70667;SDS011;58242;51.250;-1.118;2022-12-07T05:18:49;4.10;;;3.38;;
70667;SDS011;58242;51.250;-1.118;2022-12-07T05:21:14;5.40;;;4.30;;
70667;SDS011;58242;51.250;-1.118;2022-12-07T05:23:39;4.13;;;3.72;;
70667;SDS011;58242;51.250;-1.118;2022-12-07T05:26:05;6.05;;;4.68;;
70667;SDS011;58242;51.250;-1.118;2022-12-07T05:28:30;5.32;;;4.85;;
70667;SDS011;58242;51.250;-1.118;2022-12-07T05:30:56;6.22;;;4.35;;
70667;SDS011;58242;51.250;-1.118;2022-12-07T05:33:21;5.38;;;4.72;;
70667;SDS011;58242;51.250;-1.118;2022-12-07T05:35:46;6.97;;;5.05;;
70667;SDS011;58242;51.250;-1.118;2022-12-07T05:38:11;5.40;;;4.90;;
70667;SDS011;58242;51.250;-1.118;2022-12-07T05:40:37;4.50;;;4.10;;
70667;SDS011;58242;51.250;-1.118;2022-12-07T05:43:02;5.10;;;3.97;;
70667;SDS011;58242;51.250;-1.118;2022-12-07T05:45:27;4.57;;;4.18;;
70667;SDS011;58242;51.250;-1.118;2022-12-07T05:47:53;5.20;;;4.20;;
70667;SDS011;58242;51.250;-1.118;2022-12-07T05:50:18;6.43;;;5.13;;
70667;SDS011;58242;51.250;-1.118;2022-12-07T05:52:44;7.63;;;6.30;;
70667;SDS011;58242;51.250;-1.118;2022-12-07T05:55:09;4.22;;;3.83;;
70667;SDS011;58242;51.250;-1.118;2022-12-07T05:57:34;5.18;;;4.45;;
70667;SDS011;58242;51.250;-1.118;2022-12-07T06:00:00;5.30;;;4.68;;
70667;SDS011;58242;51.250;-1.118;2022-12-07T06:02:25;5.30;;;4.55;;
70667;SDS011;58242;51.250;-1.118;2022-12-07T06:04:50;6.35;;;5.30;;
70667;SDS011;58242;51.250;-1.118;2022-12-07T06:07:16;6.68;;;4.75;;
70667;SDS011;58242;51.250;-1.118;2022-12-07T06:09:42;5.05;;;4.55;;
70667;SDS011;58242;51.250;-1.118;2022-12-07T06:12:09;4.65;;;4.03;;
70667;SDS011;58242;51.250;-1.118;2022-12-07T06:14:54;5.65;;;5.13;;
70667;SDS011;58242;51.250;-1.118;2022-12-07T06:17:19;5.03;;;4.53;;
70667;SDS011;58242;51.250;-1.118;2022-12-07T06:19:45;6.45;;;5.00;;
70667;SDS011;58242;51.250;-1.118;2022-12-07T06:22:10;5.70;;;4.82;;
70667;SDS011;58242;51.250;-1.118;2022-12-07T06:24:36;5.40;;;4.60;;
70667;SDS011;58242;51.250;-1.118;2022-12-07T06:27:02;5.25;;;4.80;;
70667;SDS011;58242;51.250;-1.118;2022-12-07T06:29:28;5.65;;;4.30;;
70667;SDS011;58242;51.250;-1.118;2022-12-07T06:31:53;6.50;;;5.68;;
70667;SDS011;58242;51.250;-1.118;2022-12-07T06:34:19;11.50;;;6.88;;
70667;SDS011;58242;51.250;-1.118;2022-12-07T06:36:47;6.18;;;5.57;;
70667;SDS011;58242;51.250;-1.118;2022-12-07T06:39:16;5.78;;;5.18;;
70667;SDS011;58242;51.250;-1.118;2022-12-07T06:41:42;5.82;;;5.00;;
70667;SDS011;58242;51.250;-1.118;2022-12-07T06:44:07;4.88;;;4.47;;
70667;SDS011;58242;51.250;-1.118;2022-12-07T06:46:33;7.28;;;5.15;;
70667;SDS011;58242;51.250;-1.118;2022-12-07T06:49:00;5.90;;;5.25;;
70667;SDS011;58242;51.250;-1.118;2022-12-07T06:51:25;4.82;;;4.38;;
70667;SDS011;58242;51.250;-1.118;2022-12-07T06:53:50;7.85;;;5.63;;
70667;SDS011;58242;51.250;-1.118;2022-12-07T06:56:16;4.72;;;4.32;;
70667;SDS011;58242;51.250;-1.118;2022-12-07T06:58:41;4.90;;;4.50;;
70667;SDS011;58242;51.250;-1.118;2022-12-07T07:01:10;5.53;;;4.15;;
70667;SDS011;58242;51.250;-1.118;2022-12-07T07:03:37;6.03;;;4.50;;
70667;SDS011;58242;51.250;-1.118;2022-12-07T07:06:03;4.85;;;4.45;;
70667;SDS011;58242;51.250;-1.118;2022-12-07T07:08:30;5.28;;;4.47;;
70667;SDS011;58242;51.250;-1.118;2022-12-07T07:10:55;4.75;;;4.35;;
70667;SDS011;58242;51.250;-1.118;2022-12-07T07:13:21;6.03;;;4.68;;
70667;SDS011;58242;51.250;-1.118;2022-12-07T07:15:46;5.90;;;5.30;;
70667;SDS011;58242;51.250;-1.118;2022-12-07T07:18:11;5.47;;;4.97;;
70667;SDS011;58242;51.250;-1.118;2022-12-07T07:20:37;6.45;;;5.75;;
70667;SDS011;58242;51.250;-1.118;2022-12-07T07:23:03;5.43;;;4.80;;
70667;SDS011;58242;51.250;-1.118;2022-12-07T07:25:28;7.50;;;5.28;;
70667;SDS011;58242;51.250;-1.118;2022-12-07T07:27:54;5.78;;;5.07;;
70667;SDS011;58242;51.250;-1.118;2022-12-07T07:30:19;5.78;;;5.03;;
70667;SDS011;58242;51.250;-1.118;2022-12-07T07:32:44;5.53;;;4.43;;
70667;SDS011;58242;51.250;-1.118;2022-12-07T07:35:10;4.90;;;4.50;;
70667;SDS011;58242;51.250;-1.118;2022-12-07T07:37:35;5.13;;;4.20;;
70667;SDS011;58242;51.250;-1.118;2022-12-07T07:40:00;4.72;;;4.32;;
70667;SDS011;58242;51.250;-1.118;2022-12-07T07:42:25;5.88;;;4.70;;
70667;SDS011;58242;51.250;-1.118;2022-12-07T07:44:51;4.63;;;4.10;;
70667;SDS011;58242;51.250;-1.118;2022-12-07T07:47:16;4.68;;;4.28;;
70667;SDS011;58242;51.250;-1.118;2022-12-07T07:49:41;4.68;;;4.28;;
70667;SDS011;58242;51.250;-1.118;2022-12-07T07:52:07;4.25;;;3.85;;
70667;SDS011;58242;51.250;-1.118;2022-12-07T07:54:32;4.53;;;4.13;;
70667;SDS011;58242;51.250;-1.118;2022-12-07T07:56:57;6.47;;;3.67;;
70667;SDS011;58242;51.250;-1.118;2022-12-07T07:59:23;4.05;;;3.65;;
70667;SDS011;58242;51.250;-1.118;2022-12-07T08:01:49;4.75;;;4.05;;
70667;SDS011;58242;51.250;-1.118;2022-12-07T08:04:15;3.83;;;3.40;;
70667;SDS011;58242;51.250;-1.118;2022-12-07T08:06:41;4.63;;;4.10;;
70667;SDS011;58242;51.250;-1.118;2022-12-07T08:09:07;5.30;;;4.80;;
70667;SDS011;58242;51.250;-1.118;2022-12-07T08:11:33;3.92;;;3.63;;
70667;SDS011;58242;51.250;-1.118;2022-12-07T08:13:58;4.47;;;4.07;;
70667;SDS011;58242;51.250;-1.118;2022-12-07T08:16:23;5.53;;;4.38;;
70667;SDS011;58242;51.250;-1.118;2022-12-07T08:18:49;5.68;;;4.18;;
70667;SDS011;58242;51.250;-1.118;2022-12-07T08:21:14;5.32;;;3.67;;
70667;SDS011;58242;51.250;-1.118;2022-12-07T08:23:40;4.57;;;4.10;;
70667;SDS011;58242;51.250;-1.118;2022-12-07T08:26:07;4.93;;;4.43;;
70667;SDS011;58242;51.250;-1.118;2022-12-07T08:28:34;5.32;;;4.82;;
70667;SDS011;58242;51.250;-1.118;2022-12-07T08:31:00;5.10;;;4.68;;
70667;SDS011;58242;51.250;-1.118;2022-12-07T08:33:27;5.22;;;4.20;;
70667;SDS011;58242;51.250;-1.118;2022-12-07T08:35:52;4.50;;;4.10;;
70667;SDS011;58242;51.250;-1.118;2022-12-07T08:38:17;4.95;;;4.07;;
70667;SDS011;58242;51.250;-1.118;2022-12-07T08:40:43;5.18;;;4.20;;
70667;SDS011;58242;51.250;-1.118;2022-12-07T08:43:08;5.07;;;3.92;;
70667;SDS011;58242;51.250;-1.118;2022-12-07T08:45:33;5.45;;;4.40;;
70667;SDS011;58242;51.250;-1.118;2022-12-07T08:48:10;6.07;;;4.18;;
70667;SDS011;58242;51.250;-1.118;2022-12-07T08:50:38;5.05;;;4.55;;
70667;SDS011;58242;51.250;-1.118;2022-12-07T08:53:03;4.90;;;4.43;;
70667;SDS011;58242;51.250;-1.118;2022-12-07T08:55:30;5.10;;;4.60;;
70667;SDS011;58242;51.250;-1.118;2022-12-07T08:57:57;4.47;;;4.13;;
70667;SDS011;58242;51.250;-1.118;2022-12-07T09:00:24;5.43;;;4.93;;
70667;SDS011;58242;51.250;-1.118;2022-12-07T09:02:49;5.57;;;4.60;;
70667;SDS011;58242;51.250;-1.118;2022-12-07T09:05:14;4.28;;;3.88;;
70667;SDS011;58242;51.250;-1.118;2022-12-07T09:07:40;4.75;;;4.35;;
70667;SDS011;58242;51.250;-1.118;2022-12-07T09:10:08;5.70;;;4.80;;
70667;SDS011;58242;51.250;-1.118;2022-12-07T09:12:33;6.00;;;5.10;;
70667;SDS011;58242;51.250;-1.118;2022-12-07T09:14:58;7.70;;;4.75;;
70667;SDS011;58242;51.250;-1.118;2022-12-07T09:17:25;6.65;;;4.65;;
70667;SDS011;58242;51.250;-1.118;2022-12-07T09:19:50;5.88;;;5.07;;
70667;SDS011;58242;51.250;-1.118;2022-12-07T09:22:16;5.20;;;4.43;;
70667;SDS011;58242;51.250;-1.118;2022-12-07T09:24:41;7.28;;;5.70;;
70667;SDS011;58242;51.250;-1.118;2022-12-07T09:27:06;5.43;;;4.93;;
70667;SDS011;58242;51.250;-1.118;2022-12-07T09:29:32;5.38;;;4.47;;
70667;SDS011;58242;51.250;-1.118;2022-12-07T09:31:57;6.47;;;4.57;;
70667;SDS011;58242;51.250;-1.118;2022-12-07T09:34:22;4.60;;;4.28;;
70667;SDS011;58242;51.250;-1.118;2022-12-07T09:36:48;5.80;;;5.18;;
70667;SDS011;58242;51.250;-1.118;2022-12-07T09:39:13;5.60;;;4.32;;
70667;SDS011;58242;51.250;-1.118;2022-12-07T09:41:42;8.18;;;5.88;;
70667;SDS011;58242;51.250;-1.118;2022-12-07T09:44:13;5.35;;;4.57;;
70667;SDS011;58242;51.250;-1.118;2022-12-07T09:46:43;5.72;;;4.97;;
70667;SDS011;58242;51.250;-1.118;2022-12-07T09:49:19;5.40;;;4.90;;
70667;SDS011;58242;51.250;-1.118;2022-12-07T09:51:47;6.35;;;5.60;;
70667;SDS011;58242;51.250;-1.118;2022-12-07T09:54:14;5.07;;;4.68;;
70667;SDS011;58242;51.250;-1.118;2022-12-07T09:56:41;5.47;;;4.88;;
70667;SDS011;58242;51.250;-1.118;2022-12-07T09:59:16;7.18;;;4.95;;
70667;SDS011;58242;51.250;-1.118;2022-12-07T10:01:42;6.68;;;4.47;;
70667;SDS011;58242;51.250;-1.118;2022-12-07T10:04:16;5.32;;;4.80;;
70667;SDS011;58242;51.250;-1.118;2022-12-07T10:06:42;5.53;;;5.03;;
70667;SDS011;58242;51.250;-1.118;2022-12-07T10:09:09;6.03;;;5.20;;
70667;SDS011;58242;51.250;-1.118;2022-12-07T10:11:57;6.45;;;5.15;;
70667;SDS011;58242;51.250;-1.118;2022-12-07T10:14:33;5.03;;;4.63;;
70667;SDS011;58242;51.250;-1.118;2022-12-07T10:16:59;5.30;;;4.80;;
70667;SDS011;58242;51.250;-1.118;2022-12-07T10:19:32;5.13;;;4.63;;
70667;SDS011;58242;51.250;-1.118;2022-12-07T10:22:14;4.43;;;4.03;;
70667;SDS011;58242;51.250;-1.118;2022-12-07T10:24:42;4.50;;;4.05;;
70667;SDS011;58242;51.250;-1.118;2022-12-07T10:29:47;5.65;;;4.80;;
70667;SDS011;58242;51.250;-1.118;2022-12-07T10:34:40;4.63;;;3.75;;
70667;SDS011;58242;51.250;-1.118;2022-12-07T10:37:27;4.72;;;4.20;;
70667;SDS011;58242;51.250;-1.118;2022-12-07T10:39:53;3.97;;;3.45;;
70667;SDS011;58242;51.250;-1.118;2022-12-07T10:42:27;3.78;;;3.47;;
70667;SDS011;58242;51.250;-1.118;2022-12-07T10:45:14;3.30;;;3.00;;
70667;SDS011;58242;51.250;-1.118;2022-12-07T10:53:30;4.57;;;3.60;;
70667;SDS011;58242;51.250;-1.118;2022-12-07T10:58:52;5.55;;;4.22;;
70667;SDS011;58242;51.250;-1.118;2022-12-07T11:12:51;5.80;;;4.20;;
70667;SDS011;58242;51.250;-1.118;2022-12-07T11:15:29;6.75;;;4.50;;
70667;SDS011;58242;51.250;-1.118;2022-12-07T11:18:16;7.15;;;4.18;;
70667;SDS011;58242;51.250;-1.118;2022-12-07T11:20:53;4.28;;;3.67;;
70667;SDS011;58242;51.250;-1.118;2022-12-07T11:36:56;3.63;;;3.33;;
70667;SDS011;58242;51.250;-1.118;2022-12-07T11:41:48;7.28;;;3.97;;
70667;SDS011;58242;51.250;-1.118;2022-12-07T11:47:08;4.50;;;3.47;;
70667;SDS011;58242;51.250;-1.118;2022-12-07T11:50:03;6.53;;;3.97;;
70667;SDS011;58242;51.250;-1.118;2022-12-07T11:52:49;6.57;;;3.70;;
70667;SDS011;58242;51.250;-1.118;2022-12-07T11:55:29;5.35;;;3.80;;
70667;SDS011;58242;51.250;-1.118;2022-12-07T12:04:02;4.78;;;3.70;;
70667;SDS011;58242;51.250;-1.118;2022-12-07T12:06:36;4.50;;;3.63;;
70667;SDS011;58242;51.250;-1.118;2022-12-07T12:12:06;7.10;;;4.45;;
70667;SDS011;58242;51.250;-1.118;2022-12-07T12:14:45;4.80;;;4.15;;
70667;SDS011;58242;51.250;-1.118;2022-12-07T12:25:54;4.07;;;3.75;;
70667;SDS011;58242;51.250;-1.118;2022-12-07T12:31:14;4.00;;;3.35;;
70667;SDS011;58242;51.250;-1.118;2022-12-07T12:33:44;4.30;;;3.10;;
70667;SDS011;58242;51.250;-1.118;2022-12-07T12:49:33;2.65;;;2.45;;
70667;SDS011;58242;51.250;-1.118;2022-12-07T12:52:02;3.63;;;3.35;;
70667;SDS011;58242;51.250;-1.118;2022-12-07T12:54:58;3.78;;;3.58;;
70667;SDS011;58242;51.250;-1.118;2022-12-07T12:57:27;5.13;;;4.05;;
70667;SDS011;58242;51.250;-1.118;2022-12-07T13:04:52;2.95;;;2.72;;
70667;SDS011;58242;51.250;-1.118;2022-12-07T13:10:25;2.78;;;2.50;;
70667;SDS011;58242;51.250;-1.118;2022-12-07T13:20:43;2.83;;;2.53;;
70667;SDS011;58242;51.250;-1.118;2022-12-07T13:23:21;2.92;;;2.30;;
70667;SDS011;58242;51.250;-1.118;2022-12-07T13:25:51;2.60;;;2.50;;
70667;SDS011;58242;51.250;-1.118;2022-12-07T13:28:21;3.63;;;2.70;;
70667;SDS011;58242;51.250;-1.118;2022-12-07T13:30:59;2.80;;;2.53;;
70667;SDS011;58242;51.250;-1.118;2022-12-07T13:33:29;2.88;;;2.60;;
70667;SDS011;58242;51.250;-1.118;2022-12-07T13:35:55;2.50;;;2.30;;
70667;SDS011;58242;51.250;-1.118;2022-12-07T13:41:02;5.03;;;3.00;;
70667;SDS011;58242;51.250;-1.118;2022-12-07T13:43:29;4.70;;;2.95;;
70667;SDS011;58242;51.250;-1.118;2022-12-07T13:45:57;5.40;;;3.22;;
70667;SDS011;58242;51.250;-1.118;2022-12-07T13:48:33;3.45;;;3.08;;
70667;SDS011;58242;51.250;-1.118;2022-12-07T13:51:15;2.90;;;2.60;;
70667;SDS011;58242;51.250;-1.118;2022-12-07T13:56:15;2.70;;;2.50;;
70667;SDS011;58242;51.250;-1.118;2022-12-07T13:58:41;2.15;;;1.88;;
70667;SDS011;58242;51.250;-1.118;2022-12-07T14:01:06;3.80;;;1.85;;
70667;SDS011;58242;51.250;-1.118;2022-12-07T14:03:33;2.05;;;1.88;;
70667;SDS011;58242;51.250;-1.118;2022-12-07T14:06:03;3.40;;;2.10;;
70667;SDS011;58242;51.250;-1.118;2022-12-07T14:09:06;2.75;;;2.05;;
70667;SDS011;58242;51.250;-1.118;2022-12-07T14:11:32;2.60;;;2.40;;
70667;SDS011;58242;51.250;-1.118;2022-12-07T14:14:01;2.85;;;2.20;;
70667;SDS011;58242;51.250;-1.118;2022-12-07T14:16:35;3.00;;;2.42;;
70667;SDS011;58242;51.250;-1.118;2022-12-07T14:19:03;2.20;;;2.10;;
70667;SDS011;58242;51.250;-1.118;2022-12-07T14:21:31;2.25;;;2.15;;
70667;SDS011;58242;51.250;-1.118;2022-12-07T14:24:10;4.07;;;2.55;;
70667;SDS011;58242;51.250;-1.118;2022-12-07T14:26:44;2.88;;;2.65;;
70667;SDS011;58242;51.250;-1.118;2022-12-07T14:31:55;3.42;;;1.90;;
70667;SDS011;58242;51.250;-1.118;2022-12-07T14:34:22;2.38;;;2.28;;
70667;SDS011;58242;51.250;-1.118;2022-12-07T14:36:48;2.30;;;2.20;;
70667;SDS011;58242;51.250;-1.118;2022-12-07T14:39:14;2.50;;;2.30;;
70667;SDS011;58242;51.250;-1.118;2022-12-07T14:41:39;2.75;;;2.55;;
70667;SDS011;58242;51.250;-1.118;2022-12-07T14:44:17;3.00;;;1.90;;
70667;SDS011;58242;51.250;-1.118;2022-12-07T14:46:43;3.70;;;2.47;;
70667;SDS011;58242;51.250;-1.118;2022-12-07T14:49:08;2.78;;;2.38;;
70667;SDS011;58242;51.250;-1.118;2022-12-07T14:51:35;2.50;;;2.30;;
70667;SDS011;58242;51.250;-1.118;2022-12-07T14:54:02;2.28;;;2.03;;
70667;SDS011;58242;51.250;-1.118;2022-12-07T14:56:30;5.40;;;2.95;;
70667;SDS011;58242;51.250;-1.118;2022-12-07T14:58:56;3.08;;;2.42;;
70667;SDS011;58242;51.250;-1.118;2022-12-07T15:01:21;2.80;;;2.60;;
70667;SDS011;58242;51.250;-1.118;2022-12-07T15:03:47;5.45;;;2.33;;
70667;SDS011;58242;51.250;-1.118;2022-12-07T15:06:14;3.17;;;2.90;;
70667;SDS011;58242;51.250;-1.118;2022-12-07T15:08:41;2.78;;;2.58;;
70667;SDS011;58242;51.250;-1.118;2022-12-07T15:11:06;4.03;;;3.08;;
70667;SDS011;58242;51.250;-1.118;2022-12-07T15:13:37;3.40;;;2.72;;
70667;SDS011;58242;51.250;-1.118;2022-12-07T15:16:20;2.55;;;2.35;;
70667;SDS011;58242;51.250;-1.118;2022-12-07T15:18:46;3.15;;;2.85;;
70667;SDS011;58242;51.250;-1.118;2022-12-07T15:21:14;3.28;;;2.38;;
70667;SDS011;58242;51.250;-1.118;2022-12-07T15:23:41;3.30;;;3.10;;
70667;SDS011;58242;51.250;-1.118;2022-12-07T15:26:06;11.07;;;8.55;;
70667;SDS011;58242;51.250;-1.118;2022-12-07T15:28:33;2.28;;;2.08;;
70667;SDS011;58242;51.250;-1.118;2022-12-07T15:30:58;2.38;;;2.13;;
70667;SDS011;58242;51.250;-1.118;2022-12-07T15:33:24;4.07;;;3.00;;
70667;SDS011;58242;51.250;-1.118;2022-12-07T15:35:49;3.60;;;2.90;;
70667;SDS011;58242;51.250;-1.118;2022-12-07T15:38:15;3.25;;;2.80;;
70667;SDS011;58242;51.250;-1.118;2022-12-07T15:40:40;3.92;;;2.65;;
70667;SDS011;58242;51.250;-1.118;2022-12-07T15:43:07;7.82;;;2.90;;
70667;SDS011;58242;51.250;-1.118;2022-12-07T15:45:54;4.88;;;3.28;;
70667;SDS011;58242;51.250;-1.118;2022-12-07T15:48:19;5.68;;;3.78;;
70667;SDS011;58242;51.250;-1.118;2022-12-07T15:50:44;6.68;;;4.38;;
70667;SDS011;58242;51.250;-1.118;2022-12-07T15:53:10;9.82;;;4.68;;
70667;SDS011;58242;51.250;-1.118;2022-12-07T15:55:37;7.88;;;6.22;;
70667;SDS011;58242;51.250;-1.118;2022-12-07T15:58:03;8.63;;;7.07;;
70667;SDS011;58242;51.250;-1.118;2022-12-07T16:00:28;7.22;;;5.20;;
70667;SDS011;58242;51.250;-1.118;2022-12-07T16:02:54;6.20;;;5.57;;
70667;SDS011;58242;51.250;-1.118;2022-12-07T16:05:19;4.10;;;3.78;;
70667;SDS011;58242;51.250;-1.118;2022-12-07T16:07:44;4.88;;;4.38;;
70667;SDS011;58242;51.250;-1.118;2022-12-07T16:10:11;4.97;;;4.30;;
70667;SDS011;58242;51.250;-1.118;2022-12-07T16:12:36;4.88;;;4.10;;
70667;SDS011;58242;51.250;-1.118;2022-12-07T16:15:02;5.50;;;4.15;;
70667;SDS011;58242;51.250;-1.118;2022-12-07T16:17:27;5.75;;;3.83;;
70667;SDS011;58242;51.250;-1.118;2022-12-07T16:19:52;4.43;;;3.55;;
70667;SDS011;58242;51.250;-1.118;2022-12-07T16:22:18;3.88;;;3.40;;
70667;SDS011;58242;51.250;-1.118;2022-12-07T16:24:43;3.70;;;3.40;;
70667;SDS011;58242;51.250;-1.118;2022-12-07T16:27:09;4.55;;;3.88;;
70667;SDS011;58242;51.250;-1.118;2022-12-07T16:29:34;5.20;;;3.53;;
70667;SDS011;58242;51.250;-1.118;2022-12-07T16:31:59;5.60;;;4.30;;
70667;SDS011;58242;51.250;-1.118;2022-12-07T16:34:25;4.88;;;4.35;;
70667;SDS011;58242;51.250;-1.118;2022-12-07T16:36:50;5.15;;;4.40;;
70667;SDS011;58242;51.250;-1.118;2022-12-07T16:39:15;5.20;;;4.40;;
70667;SDS011;58242;51.250;-1.118;2022-12-07T16:41:43;4.65;;;4.20;;
70667;SDS011;58242;51.250;-1.118;2022-12-07T16:44:10;5.85;;;4.55;;
70667;SDS011;58242;51.250;-1.118;2022-12-07T16:46:37;4.63;;;4.22;;
70667;SDS011;58242;51.250;-1.118;2022-12-07T16:49:02;3.80;;;3.50;;
70667;SDS011;58242;51.250;-1.118;2022-12-07T16:51:28;3.92;;;3.10;;